createdAt,value
2018-01-06T00:00:23.348Z,7.70
2018-01-06T00:02:51.455Z,7.70
2018-01-06T00:05:19.549Z,7.70
2018-01-06T00:07:48.317Z,7.70
2018-01-06T00:10:17.322Z,7.70
2018-01-06T00:12:46.405Z,7.70
2018-01-06T00:15:14.737Z,7.70
2018-01-06T00:17:43.472Z,7.80
2018-01-06T00:20:11.392Z,7.70
2018-01-06T00:22:39.630Z,7.70
2018-01-06T00:25:07.720Z,7.70
2018-01-06T00:27:35.747Z,7.70
2018-01-06T00:30:03.628Z,7.60
2018-01-06T00:32:32.377Z,7.60
2018-01-06T00:35:01.180Z,7.60
2018-01-06T00:37:29.867Z,7.50
2018-01-06T00:39:59.446Z,7.50
2018-01-06T00:42:27.612Z,7.50
2018-01-06T00:44:55.903Z,7.50
2018-01-06T00:47:24.108Z,7.60
2018-01-06T00:49:53.031Z,7.60
2018-01-06T00:52:21.135Z,7.60
2018-01-06T00:54:50.064Z,7.50
2018-01-06T00:57:18.083Z,7.50
2018-01-06T00:59:47.191Z,7.50
2018-01-06T01:02:15.707Z,7.50
2018-01-06T01:04:44.552Z,7.50
2018-01-06T01:07:13.327Z,7.50
2018-01-06T01:09:41.415Z,7.50
2018-01-06T01:12:10.432Z,7.50
2018-01-06T01:14:39.320Z,7.50
2018-01-06T01:17:08.539Z,7.50
2018-01-06T01:19:36.925Z,7.50
2018-01-06T01:22:04.936Z,7.50
2018-01-06T01:24:33.274Z,7.50
2018-01-06T01:27:00.792Z,7.50
2018-01-06T01:29:29.125Z,7.50
2018-01-06T01:31:56.643Z,7.50
2018-01-06T01:34:25.173Z,7.50
2018-01-06T01:36:52.725Z,7.40
2018-01-06T01:39:20.486Z,7.40
2018-01-06T01:41:48.015Z,7.40
2018-01-06T01:44:15.617Z,7.50
2018-01-06T01:46:43.171Z,7.40
2018-01-06T01:49:10.686Z,7.40
2018-01-06T01:51:38.234Z,7.50
2018-01-06T01:54:06.519Z,7.40
2018-01-06T01:56:34.070Z,7.40
2018-01-06T01:59:02.382Z,7.40
2018-01-06T02:01:29.899Z,7.30
2018-01-06T02:03:58.209Z,7.30
2018-01-06T02:06:25.723Z,7.30
2018-01-06T02:08:54.023Z,7.20
2018-01-06T02:11:21.569Z,7.20
2018-01-06T02:13:49.856Z,7.30
2018-01-06T02:16:17.440Z,7.30
2018-01-06T02:18:44.959Z,7.30
2018-01-06T02:21:13.255Z,7.30
2018-01-06T02:23:40.775Z,7.30
2018-01-06T02:26:08.329Z,7.30
2018-01-06T02:28:35.861Z,7.30
2018-01-06T02:31:03.384Z,7.30
2018-01-06T02:33:30.937Z,7.30
2018-01-06T02:35:59.229Z,7.20
2018-01-06T02:38:26.766Z,7.20
2018-01-06T02:40:55.061Z,7.20
2018-01-06T02:43:22.596Z,7.20
2018-01-06T02:45:50.890Z,7.20
2018-01-06T02:48:18.497Z,7.20
2018-01-06T02:50:46.033Z,7.20
2018-01-06T02:53:13.586Z,7.20
2018-01-06T02:55:41.123Z,7.20
2018-01-06T02:58:08.663Z,7.20
2018-01-06T03:00:36.981Z,7.30
2018-01-06T03:03:04.510Z,7.20
2018-01-06T03:05:32.816Z,7.20
2018-01-06T03:08:00.362Z,7.20
2018-01-06T03:10:28.159Z,7.20
2018-01-06T03:12:55.707Z,7.10
2018-01-06T03:15:23.223Z,7.10
2018-01-06T03:17:51.542Z,7.00
2018-01-06T03:20:19.117Z,7.00
2018-01-06T03:22:46.644Z,7.10
2018-01-06T03:25:14.193Z,7.10
2018-01-06T03:27:41.708Z,7.10
2018-01-06T03:30:09.248Z,7.10
2018-01-06T03:32:37.008Z,7.10
2018-01-06T03:35:04.558Z,7.10
2018-01-06T03:37:32.136Z,7.10
2018-01-06T03:39:59.670Z,7.10
2018-01-06T03:42:27.203Z,7.00
2018-01-06T03:44:54.792Z,7.00
2018-01-06T03:47:23.070Z,7.00
2018-01-06T03:49:50.601Z,6.90
2018-01-06T03:52:18.148Z,6.90
2018-01-06T03:54:46.556Z,6.80
2018-01-06T03:57:14.089Z,6.80
2018-01-06T03:59:42.388Z,6.80
2018-01-06T04:02:10.759Z,6.80
2018-01-06T04:04:38.309Z,6.90
2018-01-06T04:07:05.841Z,6.90
2018-01-06T04:09:34.157Z,6.90
2018-01-06T04:12:01.954Z,6.90
2018-01-06T04:14:29.489Z,6.80
2018-01-06T04:16:57.273Z,6.90
2018-01-06T04:19:24.805Z,6.90
2018-01-06T04:21:52.345Z,6.90
2018-01-06T04:24:20.631Z,6.90
2018-01-06T04:26:48.585Z,6.90
2018-01-06T04:29:16.902Z,6.90
2018-01-06T04:31:44.428Z,6.80
2018-01-06T04:34:11.959Z,6.90
2018-01-06T04:36:39.490Z,6.80
2018-01-06T04:39:07.029Z,6.70
2018-01-06T04:41:34.578Z,6.70
2018-01-06T04:44:02.105Z,6.70
2018-01-06T04:46:30.425Z,6.70
2018-01-06T04:48:57.957Z,6.70
2018-01-06T04:51:25.755Z,6.70
2018-01-06T04:53:54.129Z,6.80
2018-01-06T04:56:21.985Z,6.80
2018-01-06T04:58:50.360Z,6.90
2018-01-06T05:01:17.930Z,6.90
2018-01-06T05:03:45.442Z,6.90
2018-01-06T05:06:13.739Z,6.90
2018-01-06T05:08:41.255Z,6.90
2018-01-06T05:11:08.794Z,6.90
2018-01-06T05:13:36.324Z,6.90
2018-01-06T05:16:03.848Z,6.80
2018-01-06T05:18:31.676Z,6.80
2018-01-06T05:20:59.233Z,6.70
2018-01-06T05:23:26.784Z,6.80
2018-01-06T05:25:54.303Z,6.70
2018-01-06T05:28:22.583Z,6.60
2018-01-06T05:30:50.897Z,6.30
2018-01-06T05:33:18.669Z,6.30
2018-01-06T05:35:46.537Z,6.20
2018-01-06T05:38:14.055Z,6.10
2018-01-06T05:40:41.855Z,6.10
2018-01-06T05:43:09.388Z,6.20
2018-01-06T05:45:36.906Z,6.20
2018-01-06T05:48:04.457Z,6.20
2018-01-06T05:50:33.480Z,6.20
2018-01-06T05:53:02.113Z,6.20
2018-01-06T05:55:29.655Z,6.20
2018-01-06T05:57:57.204Z,6.20
2018-01-06T06:00:24.725Z,6.10
2018-01-06T06:02:53.022Z,6.00
2018-01-06T06:05:20.560Z,6.00
2018-01-06T06:07:48.852Z,5.90
2018-01-06T06:10:17.169Z,5.90
2018-01-06T06:12:44.692Z,5.90
2018-01-06T06:15:12.986Z,5.90
2018-01-06T06:17:40.533Z,5.90
2018-01-06T06:20:08.056Z,5.90
2018-01-06T06:22:35.597Z,5.90
2018-01-06T06:25:03.116Z,5.90
2018-01-06T06:27:30.651Z,5.90
2018-01-06T06:29:58.946Z,5.70
2018-01-06T06:32:26.463Z,5.70
2018-01-06T06:34:53.991Z,5.70
2018-01-06T06:37:21.507Z,5.60
2018-01-06T06:39:49.804Z,5.70
2018-01-06T06:42:17.320Z,5.60
2018-01-06T06:44:44.860Z,5.70
2018-01-06T06:47:12.406Z,5.70
2018-01-06T06:49:39.933Z,5.70
2018-01-06T06:52:07.464Z,5.70
2018-01-06T06:54:35.787Z,5.70
2018-01-06T06:57:03.319Z,5.70
2018-01-06T06:59:30.834Z,5.70
2018-01-06T07:01:58.371Z,5.80
2018-01-06T07:04:25.887Z,5.80
2018-01-06T07:06:54.514Z,5.90
2018-01-06T07:09:22.062Z,5.90
2018-01-06T07:11:49.630Z,5.90
2018-01-06T07:14:17.163Z,5.90
2018-01-06T07:16:44.691Z,5.90
2018-01-06T07:19:13.015Z,6.00
2018-01-06T07:21:40.562Z,6.00
2018-01-06T07:24:08.348Z,6.10
2018-01-06T07:26:35.886Z,6.10
2018-01-06T07:29:03.436Z,6.20
2018-01-06T07:31:30.954Z,6.20
2018-01-06T07:33:58.495Z,6.20
2018-01-06T07:36:26.031Z,6.30
2018-01-06T07:38:53.552Z,6.30
2018-01-06T07:41:21.866Z,6.30
2018-01-06T07:43:49.435Z,6.30
2018-01-06T07:46:16.976Z,6.30
2018-01-06T07:48:44.506Z,6.30
2018-01-06T07:51:12.787Z,6.30
2018-01-06T07:53:40.478Z,6.30
2018-01-06T07:56:08.039Z,6.30
2018-01-06T07:58:35.571Z,6.30
2018-01-06T08:01:03.097Z,6.30
2018-01-06T08:03:30.631Z,6.30
2018-01-06T08:05:58.161Z,6.30
2018-01-06T08:08:25.685Z,6.30
2018-01-06T08:10:54.002Z,6.40
2018-01-06T08:13:21.680Z,6.40
2018-01-06T08:15:49.229Z,6.40
2018-01-06T08:18:16.762Z,6.50
2018-01-06T08:20:44.304Z,6.60
2018-01-06T08:23:12.599Z,6.70
2018-01-06T08:25:40.152Z,6.70
2018-01-06T08:28:07.698Z,6.70
2018-01-06T08:30:35.239Z,6.80
2018-01-06T08:33:03.111Z,6.80
2018-01-06T08:35:31.409Z,6.90
2018-01-06T08:37:58.953Z,6.90
2018-01-06T08:40:27.492Z,6.90
2018-01-06T08:42:55.027Z,6.90
2018-01-06T08:45:22.539Z,7.00
2018-01-06T08:47:50.075Z,7.00
2018-01-06T08:50:17.648Z,7.00
2018-01-06T08:52:45.485Z,7.00
2018-01-06T08:55:13.052Z,7.00
2018-01-06T08:57:40.571Z,6.90
2018-01-06T09:00:08.121Z,7.00
2018-01-06T09:02:36.417Z,7.20
2018-01-06T09:05:03.992Z,7.20
2018-01-06T09:07:31.537Z,7.40
2018-01-06T09:09:59.068Z,7.50
2018-01-06T09:12:27.370Z,7.60
2018-01-06T09:14:54.905Z,7.70
2018-01-06T09:17:23.210Z,7.80
2018-01-06T09:19:50.752Z,7.80
2018-01-06T09:22:18.276Z,8.00
2018-01-06T09:24:46.594Z,8.20
2018-01-06T09:27:14.159Z,8.20
2018-01-06T09:29:41.699Z,8.30
2018-01-06T09:32:10.223Z,8.40
2018-01-06T09:34:37.828Z,8.40
2018-01-06T09:37:06.146Z,8.50
2018-01-06T09:39:33.670Z,8.50
2018-01-06T09:42:01.948Z,8.80
2018-01-06T09:44:30.581Z,9.10
2018-01-06T09:46:58.113Z,9.10
2018-01-06T09:49:25.658Z,9.60
2018-01-06T09:51:53.943Z,10.60
2018-01-06T09:54:21.483Z,10.50
2018-01-06T09:56:50.178Z,12.10
2018-01-06T09:59:17.718Z,12.10
2018-01-06T10:01:46.035Z,13.40
2018-01-06T10:04:13.580Z,13.40
2018-01-06T10:06:41.115Z,13.80
2018-01-06T10:09:09.397Z,14.60
2018-01-06T10:11:37.700Z,14.70
2018-01-06T10:14:05.233Z,14.60
2018-01-06T10:16:33.522Z,14.90
2018-01-06T10:19:01.326Z,14.90
2018-01-06T10:21:28.870Z,14.70
2018-01-06T10:23:56.431Z,14.60
2018-01-06T10:26:23.961Z,14.40
2018-01-06T10:28:51.480Z,14.10
2018-01-06T10:31:19.803Z,13.70
2018-01-06T10:33:47.324Z,13.60
2018-01-06T10:36:14.869Z,13.60
2018-01-06T10:38:43.756Z,13.30
2018-01-06T10:41:11.997Z,13.30
2018-01-06T10:43:40.929Z,13.60
2018-01-06T10:46:09.532Z,13.50
2018-01-06T10:48:38.201Z,13.70
2018-01-06T10:51:06.120Z,13.70
2018-01-06T10:53:35.023Z,13.20
2018-01-06T10:56:03.338Z,13.20
2018-01-06T10:58:31.292Z,13.00
2018-01-06T11:01:05.024Z,13.00
2018-01-06T11:03:33.978Z,13.30
2018-01-06T11:06:02.444Z,13.30
2018-01-06T11:08:31.325Z,13.50
2018-01-06T11:10:59.636Z,14.20
2018-01-06T11:13:28.265Z,14.80
2018-01-06T11:15:56.396Z,15.10
2018-01-06T11:18:25.479Z,14.60
2018-01-06T11:20:53.450Z,14.30
2018-01-06T11:23:22.180Z,13.40
2018-01-06T11:25:51.085Z,13.30
2018-01-06T11:28:21.060Z,13.60
2018-01-06T11:30:49.312Z,13.60
2018-01-06T11:33:17.078Z,13.30
2018-01-06T11:35:46.885Z,13.40
2018-01-06T11:38:15.902Z,14.10
2018-01-06T11:40:43.756Z,14.10
2018-01-06T11:43:12.686Z,14.40
2018-01-06T11:45:41.697Z,13.50
2018-01-06T11:48:10.082Z,13.40
2018-01-06T11:50:39.289Z,13.20
2018-01-06T11:53:07.441Z,13.20
2018-01-06T11:55:35.256Z,13.60
2018-01-06T11:58:04.199Z,12.80
2018-01-06T12:00:33.056Z,12.60
2018-01-06T12:03:01.185Z,12.60
2018-01-06T12:05:30.222Z,12.10
2018-01-06T12:07:58.247Z,12.10
2018-01-06T12:10:27.433Z,11.90
2018-01-06T12:12:55.628Z,11.90
2018-01-06T12:15:23.844Z,11.80
2018-01-06T12:17:52.831Z,11.90
2018-01-06T12:20:22.167Z,11.80
2018-01-06T12:22:50.381Z,11.80
2018-01-06T12:25:18.496Z,11.60
2018-01-06T12:27:47.470Z,11.40
2018-01-06T12:30:15.877Z,11.40
2018-01-06T12:32:44.891Z,11.40
2018-01-06T12:35:13.891Z,11.40
2018-01-06T12:37:42.686Z,11.50
2018-01-06T12:40:10.666Z,11.40
2018-01-06T12:42:39.973Z,11.40
2018-01-06T12:45:07.923Z,11.20
2018-01-06T12:47:36.637Z,11.30
2018-01-06T12:50:06.294Z,11.20
2018-01-06T12:52:35.204Z,11.20
2018-01-06T12:55:04.323Z,11.10
2018-01-06T12:57:33.223Z,11.10
2018-01-06T13:00:02.845Z,11.10
2018-01-06T13:02:31.651Z,11.20
2018-01-06T13:05:00.816Z,11.10
2018-01-06T13:07:29.186Z,11.10
2018-01-06T13:09:57.524Z,11.30
2018-01-06T13:12:26.421Z,11.30
2018-01-06T13:14:54.666Z,11.20
2018-01-06T13:17:23.768Z,11.20
2018-01-06T13:19:52.727Z,11.10
2018-01-06T13:22:22.045Z,10.90
2018-01-06T13:24:51.340Z,10.80
2018-01-06T13:27:19.521Z,10.80
2018-01-06T13:29:48.531Z,10.90
2018-01-06T13:34:51.567Z,10.90
2018-01-06T13:37:19.638Z,10.90
2018-01-06T13:39:48.231Z,10.90
2018-01-06T13:42:16.069Z,10.90
2018-01-06T13:44:44.960Z,10.90
2018-01-06T13:47:12.862Z,10.90
2018-01-06T13:49:41.842Z,10.90
2018-01-06T13:52:09.662Z,10.90
2018-01-06T13:54:38.776Z,10.90
2018-01-06T13:57:07.516Z,10.90
2018-01-06T13:59:35.995Z,10.90
2018-01-06T14:02:04.666Z,10.90
2018-01-06T14:04:33.734Z,10.90
2018-01-06T14:07:03.369Z,10.90
2018-01-06T14:09:31.998Z,10.90
2018-01-06T14:12:00.096Z,10.90
2018-01-06T14:14:29.015Z,11.00
2018-01-06T14:16:56.968Z,11.00
2018-01-06T14:19:26.433Z,11.00
2018-01-06T14:21:55.008Z,10.90
2018-01-06T14:24:23.926Z,10.80
2018-01-06T14:26:51.908Z,10.80
2018-01-06T14:29:20.374Z,10.80
2018-01-06T14:31:48.545Z,10.80
2018-01-06T14:34:16.569Z,10.90
2018-01-06T14:36:44.674Z,10.90
2018-01-06T14:39:12.758Z,10.90
2018-01-06T14:41:41.442Z,10.80
2018-01-06T14:44:09.771Z,10.70
2018-01-06T14:46:37.513Z,10.80
2018-01-06T14:49:06.367Z,10.80
2018-01-06T14:51:35.185Z,10.80
2018-01-06T14:54:03.393Z,10.90
2018-01-06T14:56:31.232Z,10.80
2018-01-06T14:59:00.284Z,10.60
2018-01-06T15:01:28.744Z,10.60
2018-01-06T15:03:57.477Z,10.50
2018-01-06T15:06:25.621Z,10.50
2018-01-06T15:08:53.307Z,10.50
2018-01-06T15:11:23.487Z,10.40
2018-01-06T15:13:51.578Z,10.40
2018-01-06T15:16:21.246Z,10.30
2018-01-06T15:18:49.154Z,10.30
2018-01-06T15:21:17.293Z,10.20
2018-01-06T15:23:45.223Z,10.10
2018-01-06T15:26:14.162Z,9.90
2018-01-06T15:28:42.601Z,9.90
2018-01-06T15:31:11.970Z,9.80
2018-01-06T15:33:39.996Z,9.80
2018-01-06T15:36:09.452Z,9.70
2018-01-06T15:38:37.525Z,9.70
2018-01-06T15:41:05.798Z,9.70
2018-01-06T15:43:33.970Z,9.60
2018-01-06T15:46:03.029Z,9.60
2018-01-06T15:48:32.219Z,9.60
2018-01-06T15:51:01.221Z,9.60
2018-01-06T15:53:30.669Z,9.50
2018-01-06T15:55:59.046Z,9.50
2018-01-06T15:58:27.974Z,9.40
2018-01-06T16:00:57.689Z,9.30
2018-01-06T16:03:25.867Z,9.30
2018-01-06T16:05:53.710Z,9.20
2018-01-06T16:08:22.922Z,9.00
2018-01-06T16:10:51.138Z,9.00
2018-01-06T16:13:19.298Z,9.00
2018-01-06T16:15:48.258Z,8.80
2018-01-06T16:18:17.910Z,8.80
2018-01-06T16:20:45.870Z,8.80
2018-01-06T16:23:14.375Z,8.70
2018-01-06T16:25:43.525Z,8.70
2018-01-06T16:28:12.768Z,8.50
2018-01-06T16:30:40.852Z,8.60
2018-01-06T16:33:08.961Z,8.50
2018-01-06T16:35:36.797Z,8.50
2018-01-06T16:38:04.705Z,8.40
2018-01-06T16:40:33.924Z,8.60
2018-01-06T16:43:02.425Z,8.50
2018-01-06T16:45:30.345Z,8.60
2018-01-06T16:47:58.879Z,8.50
2018-01-06T16:50:28.033Z,8.50
2018-01-06T16:52:56.911Z,8.40
2018-01-06T16:55:25.255Z,8.20
2018-01-06T16:57:53.434Z,8.20
2018-01-06T17:00:21.529Z,8.20
2018-01-06T17:02:50.774Z,8.20
2018-01-06T17:05:19.509Z,8.00
2018-01-06T17:07:47.539Z,8.00
2018-01-06T17:10:15.819Z,8.00
2018-01-06T17:12:43.617Z,8.00
2018-01-06T17:15:11.538Z,7.90
2018-01-06T17:17:40.082Z,7.80
2018-01-06T17:20:07.866Z,7.70
2018-01-06T17:22:37.281Z,7.60
2018-01-06T17:25:05.606Z,7.60
2018-01-06T17:27:34.563Z,7.60
2018-01-06T17:30:02.821Z,7.60
2018-01-06T17:32:32.319Z,7.60
2018-01-06T17:35:01.392Z,7.50
2018-01-06T17:37:30.133Z,7.50
2018-01-06T17:39:58.863Z,7.50
2018-01-06T17:42:26.756Z,7.50
2018-01-06T17:44:54.549Z,7.40
2018-01-06T17:47:22.612Z,7.30
2018-01-06T17:49:50.687Z,7.30
2018-01-06T17:52:18.848Z,7.30
2018-01-06T17:54:48.054Z,7.10
2018-01-06T17:57:16.706Z,7.10
2018-01-06T17:59:45.192Z,7.10
2018-01-06T18:02:14.020Z,7.10
2018-01-06T18:04:42.127Z,7.10
2018-01-06T18:07:10.385Z,7.10
2018-01-06T18:09:39.083Z,7.20
2018-01-06T18:12:07.226Z,7.20
2018-01-06T18:14:34.948Z,7.20
2018-01-06T18:17:03.652Z,7.30
2018-01-06T18:19:32.049Z,7.20
2018-01-06T18:22:01.036Z,7.40
2018-01-06T18:24:29.044Z,7.40
2018-01-06T18:26:57.947Z,7.40
2018-01-06T18:29:25.819Z,7.20
2018-01-06T18:31:55.046Z,7.00
2018-01-06T18:34:23.123Z,7.00
2018-01-06T18:36:52.360Z,6.90
2018-01-06T18:39:20.847Z,6.90
2018-01-06T18:41:49.013Z,6.90
2018-01-06T18:44:18.114Z,6.70
2018-01-06T18:46:45.826Z,6.60
2018-01-06T18:49:14.982Z,6.60
2018-01-06T18:51:43.245Z,6.60
2018-01-06T18:54:12.259Z,6.40
2018-01-06T18:56:40.599Z,6.40
2018-01-06T18:59:09.300Z,6.40
2018-01-06T19:01:37.486Z,6.20
2018-01-06T19:04:05.325Z,6.20
2018-01-06T19:06:33.565Z,5.80
2018-01-06T19:09:01.626Z,5.80
2018-01-06T19:11:30.537Z,6.00
2018-01-06T19:13:59.217Z,6.00
2018-01-06T19:16:28.745Z,6.00
2018-01-06T19:18:56.912Z,6.00
2018-01-06T19:21:25.861Z,5.80
2018-01-06T19:23:54.803Z,5.80
2018-01-06T19:26:22.743Z,5.80
2018-01-06T19:28:51.077Z,5.80
2018-01-06T19:31:19.151Z,5.90
2018-01-06T19:33:48.401Z,5.90
2018-01-06T19:36:16.667Z,5.90
2018-01-06T19:38:44.906Z,6.00
2018-01-06T19:41:13.705Z,5.90
2018-01-06T19:43:42.661Z,5.90
2018-01-06T19:46:11.658Z,5.90
2018-01-06T19:48:40.612Z,5.70
2018-01-06T19:51:09.960Z,5.60
2018-01-06T19:53:38.210Z,5.60
2018-01-06T19:56:07.112Z,5.60
2018-01-06T19:58:35.174Z,5.60
2018-01-06T20:01:03.541Z,5.60
2018-01-06T20:03:31.449Z,5.50
2018-01-06T20:06:00.572Z,5.60
2018-01-06T20:08:29.203Z,5.50
2018-01-06T20:10:58.485Z,5.50
2018-01-06T20:13:27.506Z,5.50
2018-01-06T20:15:55.856Z,5.40
2018-01-06T20:18:24.623Z,5.30
2018-01-06T20:20:53.435Z,5.30
2018-01-06T20:23:22.442Z,5.30
2018-01-06T20:25:50.468Z,5.20
2018-01-06T20:28:18.266Z,5.10
2018-01-06T20:30:47.003Z,5.20
2018-01-06T20:33:15.858Z,5.20
2018-01-06T20:35:44.833Z,5.20
2018-01-06T20:38:13.702Z,5.20
2018-01-06T20:40:43.088Z,5.10
2018-01-06T20:43:12.416Z,5.00
2018-01-06T20:45:40.295Z,5.00
2018-01-06T20:48:08.343Z,5.00
2018-01-06T20:50:37.178Z,5.00
2018-01-06T20:53:05.047Z,5.00
2018-01-06T20:55:34.133Z,4.70
2018-01-06T20:58:02.372Z,4.60
2018-01-06T21:00:30.416Z,4.40
2018-01-06T21:02:59.646Z,4.40
2018-01-06T21:05:27.941Z,4.40
2018-01-06T21:07:56.126Z,4.30
2018-01-06T21:10:24.421Z,4.20
2018-01-06T21:12:54.298Z,4.00
2018-01-06T21:15:23.214Z,4.00
2018-01-06T21:17:52.206Z,3.80
2018-01-06T21:20:20.580Z,3.80
2018-01-06T21:22:48.373Z,4.00
2018-01-06T21:25:17.395Z,4.10
2018-01-06T21:27:46.256Z,4.00
2018-01-06T21:30:14.544Z,4.00
2018-01-06T21:32:43.701Z,3.80
2018-01-06T21:35:11.772Z,3.80
2018-01-06T21:37:40.806Z,4.00
2018-01-06T21:40:10.361Z,4.00
2018-01-06T21:42:38.425Z,4.00
2018-01-06T21:45:06.305Z,3.90
2018-01-06T21:47:35.185Z,3.60
2018-01-06T21:50:03.228Z,3.60
2018-01-06T21:52:31.329Z,3.50
2018-01-06T21:55:00.006Z,3.50
2018-01-06T21:57:28.310Z,3.60
2018-01-06T21:59:56.442Z,3.60
2018-01-06T22:02:24.426Z,3.60
2018-01-06T22:04:52.868Z,3.70
2018-01-06T22:07:22.030Z,3.70
2018-01-06T22:09:50.155Z,3.70
2018-01-06T22:12:18.342Z,3.70
2018-01-06T22:14:46.505Z,3.80
2018-01-06T22:17:15.815Z,3.40
2018-01-06T22:19:44.700Z,3.40
2018-01-06T22:22:12.813Z,3.40
2018-01-06T22:24:40.989Z,3.20
2018-01-06T22:27:09.038Z,3.20
2018-01-06T22:29:37.629Z,2.90
2018-01-06T22:32:06.278Z,2.90
2018-01-06T22:34:35.453Z,2.80
2018-01-06T22:37:04.960Z,2.90
2018-01-06T22:39:33.689Z,3.00
2018-01-06T22:42:01.385Z,2.90
2018-01-06T22:44:30.585Z,3.10
2018-01-06T22:46:58.643Z,3.20
2018-01-06T22:49:26.952Z,3.30
2018-01-06T22:51:55.674Z,3.20
2018-01-06T22:54:24.403Z,3.20
2018-01-06T22:56:53.805Z,3.20
2018-01-06T22:59:22.200Z,3.20
2018-01-06T23:01:50.975Z,3.30
2018-01-06T23:04:19.144Z,3.30
2018-01-06T23:06:47.075Z,3.30
2018-01-06T23:09:15.723Z,3.20
2018-01-06T23:11:44.561Z,3.20
2018-01-06T23:14:12.453Z,3.20
2018-01-06T23:16:41.094Z,3.10
2018-01-06T23:19:09.453Z,3.00
2018-01-06T23:21:37.553Z,3.10
2018-01-06T23:24:06.769Z,3.10
2018-01-06T23:26:35.950Z,3.20
2018-01-06T23:29:04.567Z,3.20
2018-01-06T23:31:33.302Z,3.20
2018-01-06T23:34:01.859Z,3.10
2018-01-06T23:36:30.921Z,3.20
2018-01-06T23:38:58.648Z,3.10
2018-01-06T23:41:27.632Z,3.20
2018-01-06T23:43:55.442Z,3.20
2018-01-06T23:46:24.668Z,3.10
2018-01-06T23:48:53.149Z,3.10
2018-01-06T23:51:22.284Z,3.10
2018-01-06T23:53:51.249Z,3.10
2018-01-06T23:56:20.141Z,3.00
2018-01-06T23:58:48.384Z,3.00
